.
WxDataArchive / Data Records for 2007-06-25
2007-06-24 June 2007 2007-06-26

Data Records for Monday, 25 June 2007

Time	Temp	Chill	HIndex	Humid	Dewpt	 Wind 	HiWind	WindDir	Rain 	Barom 
-----	----	-----	------	-----	-----	------	------	-------	-----	----- 
00:00	65.6	65.6	65.6	95	64.1	0	0	---	0.00	30.016 
00:05	65.6	65.6	65.6	96	64.4	0	0	---	0.00	30.014 
00:10	65.6	65.6	65.6	96	64.4	0	0	---	0.00	30.013 
00:15	65.5	65.5	65.5	96	64.3	0	0	---	0.00	30.013 
00:20	65.5	65.5	65.5	96	64.3	0	0	---	0.00	30.015 
00:25	65.3	65.3	65.3	96	64.1	0	0	---	0.00	30.015 
00:30	65.2	65.2	65.2	96	64.0	0	0	---	0.00	30.017 
00:35	65.0	65.0	65.0	96	63.8	0	0	---	0.00	30.018 
00:40	65.0	65.0	65.0	96	63.8	0	0	---	0.00	30.018 
00:45	64.8	64.8	64.8	96	63.6	0	0	---	0.00	30.019 
00:50	64.7	64.7	64.7	96	63.5	0	0	---	0.00	30.021 
00:55	64.7	64.7	64.7	96	63.5	0	0	---	0.00	30.022 
01:00	64.7	64.7	64.7	96	63.5	0	0	---	0.00	30.021 
01:05	64.7	64.7	64.7	96	63.5	0	0	---	0.00	30.016 
01:10	64.7	64.7	64.7	96	63.5	0	0	---	0.00	30.016 
01:15	64.5	64.5	64.5	96	63.3	0	0	---	0.00	30.017 
01:20	64.3	64.3	64.3	96	63.1	0	0	---	0.00	30.015 
01:25	64.3	64.3	64.3	96	63.1	0	0	---	0.00	30.016 
01:30	64.2	64.2	64.2	96	63.0	0	0	---	0.00	30.015 
01:35	64.2	64.2	64.2	96	63.0	0	0	---	0.00	30.015 
01:40	64.2	64.2	64.2	96	63.0	0	0	---	0.00	30.016 
01:45	64.2	64.2	64.2	96	63.0	0	0	---	0.00	30.018 
01:50	64.0	64.0	64.0	96	62.8	0	0	---	0.00	30.017 
01:55	64.0	64.0	64.0	96	62.8	0	0	---	0.00	30.021 
02:00	64.0	64.0	64.0	96	62.8	0	0	---	0.00	30.021 
02:05	64.0	64.0	64.0	96	62.8	0	0	---	0.00	30.016 
02:10	64.0	64.0	64.0	96	62.8	0	0	---	0.00	30.015 
02:15	64.2	64.2	64.2	97	63.3	0	0	---	0.00	30.016 
02:20	64.2	64.2	64.2	97	63.3	0	0	---	0.00	30.018 
02:25	64.3	64.3	64.3	97	63.4	0	0	---	0.00	30.018 
02:30	64.3	64.3	64.3	97	63.4	0	0	---	0.00	30.018 
02:35	64.3	64.3	64.3	97	63.4	0	0	---	0.00	30.018 
02:40	64.7	64.7	64.7	97	63.8	0	1	112	0.00	30.014 
02:45	64.8	64.8	64.8	97	63.9	0	0	---	0.00	30.013 
02:50	65.0	65.0	65.0	97	64.1	0	0	---	0.00	30.013 
02:55	65.0	65.0	65.0	97	64.1	0	0	---	0.00	30.012 
03:00	65.2	65.2	65.2	97	64.3	0	0	---	0.00	30.011 
03:05	65.2	65.2	65.2	97	64.3	0	0	---	0.00	30.008 
03:10	65.2	65.2	65.2	97	64.3	0	0	---	0.00	30.008 
03:15	65.3	65.3	65.3	97	64.4	0	0	---	0.00	30.007 
03:20	65.3	65.3	65.3	97	64.4	0	0	---	0.00	30.007 
03:25	65.3	65.3	65.3	97	64.4	0	0	---	0.00	30.006 
03:30	65.2	65.2	65.2	97	64.3	0	0	---	0.00	30.005 
03:35	65.2	65.2	65.2	97	64.3	0	0	---	0.00	30.006 
03:40	65.0	65.0	65.0	97	64.1	0	0	---	0.00	30.005 
03:45	64.8	64.8	64.8	97	63.9	0	0	---	0.00	30.006 
03:50	64.7	64.7	64.7	97	63.8	0	0	---	0.00	30.004 
03:55	64.5	64.5	64.5	97	63.6	0	0	---	0.00	30.005 
04:00	64.3	64.3	64.3	97	63.4	0	0	---	0.00	30.005 
04:05	64.2	64.2	64.2	97	63.3	0	0	---	0.00	30.008 
04:10	64.0	64.0	64.0	97	63.1	0	0	---	0.00	30.010 
04:15	63.9	63.9	63.9	97	63.0	0	0	---	0.00	30.011 
04:20	63.9	63.9	63.9	97	63.0	0	0	---	0.00	30.011 
04:25	63.7	63.7	63.7	97	62.8	0	0	---	0.00	30.015 
04:30	63.5	63.5	63.5	97	62.6	0	0	---	0.00	30.021 
04:35	63.4	63.4	63.4	97	62.5	0	0	---	0.00	30.025 
04:40	63.2	63.2	63.2	97	62.3	0	0	---	0.00	30.026 
04:45	63.2	63.2	63.2	97	62.3	0	0	---	0.00	30.026 
04:50	63.1	63.1	63.1	97	62.2	0	0	---	0.00	30.032 
04:55	63.1	63.1	63.1	97	62.2	0	0	---	0.00	30.037 
05:00	63.1	63.1	63.1	97	62.2	0	0	---	0.00	30.036 
05:05	62.9	62.9	62.9	97	62.0	0	0	---	0.00	30.039 
05:10	62.7	62.7	62.7	97	61.8	0	0	---	0.00	30.041 
05:15	62.7	62.7	62.7	97	61.8	0	0	---	0.00	30.043 
05:20	62.7	62.7	62.7	97	61.8	0	0	---	0.00	30.045 
05:25	62.9	62.9	62.9	97	62.0	0	0	---	0.00	30.052 
05:30	62.9	62.9	62.9	97	62.0	0	0	---	0.00	30.055 
05:35	63.4	63.4	63.4	98	62.8	0	0	---	0.00	30.057 
05:40	63.9	63.9	63.9	98	63.3	0	0	---	0.00	30.057 
05:45	64.3	64.3	64.3	98	63.7	0	0	---	0.00	30.057 
05:50	64.7	64.7	64.7	98	64.1	0	0	---	0.00	30.060 
05:55	64.7	64.7	64.7	98	64.1	0	0	---	0.00	30.059 
06:00	65.0	65.0	65.0	98	64.4	0	0	---	0.00	30.059 
06:05	65.2	65.2	65.2	98	64.6	0	0	---	0.00	30.063 
06:10	65.3	65.3	65.3	98	64.7	0	1	112	0.00	30.066 
06:15	65.5	65.5	65.5	98	64.9	0	0	---	0.00	30.070 
06:20	65.6	65.6	65.6	98	65.0	0	1	112	0.00	30.072 
06:25	65.6	65.6	65.6	98	65.0	0	2	112	0.00	30.075 
06:30	65.6	65.6	65.6	98	65.0	0	1	112	0.00	30.074 
06:35	65.6	65.6	65.6	98	65.0	0	1	112	0.00	30.074 
06:40	65.8	65.8	65.8	98	65.2	0	1	112	0.00	30.076 
06:45	66.0	66.0	66.0	98	65.4	0	1	112	0.00	30.078 
06:50	66.0	66.0	66.0	98	65.4	0	1	112	0.00	30.079 
06:55	66.1	66.1	66.1	98	65.5	1	2	112	0.00	30.078 
07:00	66.4	66.4	66.4	98	65.8	0	3	112	0.00	30.076 
07:05	66.8	66.8	66.8	97	65.9	1	3	112	0.00	30.077 
07:10	67.1	67.1	67.1	97	66.2	2	4	112	0.00	30.075 
07:15	67.4	67.4	67.4	95	65.9	1	3	68	0.00	30.077 
07:20	68.1	68.1	68.1	93	66.0	1	3	68	0.00	30.074 
07:25	68.8	68.8	68.8	91	66.1	1	3	68	0.00	30.077 
07:30	69.3	69.3	69.3	89	65.9	1	3	68	0.00	30.079 
07:35	70.1	70.1	70.1	88	66.4	0	2	68	0.00	30.083 
07:40	70.8	70.8	70.8	85	66.1	1	3	90	0.00	30.083 
07:45	71.1	71.1	71.1	83	65.7	1	3	90	0.00	30.083 
07:50	71.5	71.5	71.5	83	66.1	1	3	112	0.00	30.085 
07:55	72.0	72.0	72.0	81	65.8	1	3	112	0.00	30.085 
08:00	72.7	72.7	72.7	80	66.2	1	2	112	0.00	30.084 
08:05	73.2	73.2	73.2	77	65.5	1	3	112	0.00	30.087 
08:10	73.5	73.5	73.5	78	66.2	1	3	112	0.00	30.087 
08:15	73.9	73.9	73.9	76	65.8	1	3	112	0.00	30.088 
08:20	74.4	74.4	74.4	76	66.3	1	4	112	0.00	30.086 
08:25	74.7	74.7	74.7	75	66.2	1	3	112	0.00	30.085 
08:30	75.3	75.3	76.7	73	66.0	1	4	90	0.00	30.084 
08:35	75.4	75.4	76.8	73	66.1	1	4	90	0.00	30.085 
08:40	75.8	75.8	77.3	73	66.5	1	3	90	0.00	30.083 
08:45	76.0	76.0	77.6	71	65.9	2	4	90	0.00	30.083 
08:50	76.1	76.1	77.5	74	67.2	1	4	90	0.00	30.084 
08:55	76.5	76.5	78.1	72	66.8	2	5	90	0.00	30.082 
09:00	76.5	76.5	78.1	72	66.8	2	4	90	0.00	30.082 
09:05	76.7	76.7	78.4	72	67.0	1	4	90	0.00	30.083 
09:10	76.8	76.8	78.5	71	66.7	2	3	90	0.00	30.082 
09:15	77.2	77.2	79.0	71	67.0	1	4	90	0.00	30.082 
09:20	77.6	77.6	79.5	71	67.4	1	4	90	0.00	30.080 
09:25	77.7	77.7	79.7	73	68.3	1	4	90	0.00	30.080 
09:30	78.1	78.1	80.2	72	68.3	1	3	90	0.00	30.079 
09:35	78.3	78.3	80.4	70	67.7	2	5	90	0.00	30.080 
09:40	78.3	78.3	80.5	72	68.5	1	5	90	0.00	30.080 
09:45	78.5	78.5	80.6	68	67.0	1	3	112	0.00	30.079 
09:50	78.5	78.5	80.7	69	67.5	2	6	112	0.00	30.080 
09:55	78.3	78.3	80.3	68	66.8	2	4	90	0.00	30.079 
10:00	78.5	78.5	80.6	68	67.0	2	5	90	0.00	30.079 
10:05	78.8	78.8	81.1	70	68.2	3	5	90	0.00	30.078 
10:10	79.4	79.4	81.9	69	68.3	1	5	135	0.00	30.080 
10:15	79.9	79.9	82.3	66	67.5	1	3	90	0.00	30.080 
10:20	80.5	80.5	83.2	66	68.1	1	3	90	0.00	30.079 
10:25	80.3	80.3	83.0	67	68.3	1	3	90	0.00	30.078 
10:30	80.5	80.5	83.2	66	68.1	2	5	90	0.00	30.078 
10:35	80.3	80.3	82.9	66	67.9	1	5	90	0.00	30.078 
10:40	79.9	79.9	82.1	64	66.6	1	5	112	0.00	30.079 
10:45	79.8	79.8	82.1	65	67.0	1	3	135	0.00	30.080 
10:50	79.6	79.6	81.8	65	66.8	1	3	112	0.00	30.078 
10:55	79.9	79.9	82.3	66	67.5	1	4	90	0.00	30.077 
11:00	80.3	80.3	82.8	65	67.4	2	4	112	0.00	30.079 
11:05	80.3	80.3	82.8	65	67.4	2	4	112	0.00	30.080 
11:10	80.7	80.7	83.5	66	68.3	1	3	112	0.00	30.079 
11:15	80.5	80.5	83.1	65	67.6	1	6	112	0.00	30.080 
11:20	80.7	80.7	83.1	63	66.9	1	5	112	0.00	30.081 
11:25	81.4	81.4	84.3	64	68.0	1	5	135	0.00	30.081 
11:30	81.8	81.8	84.9	64	68.4	2	7	112	0.00	30.080 
11:35	81.4	81.4	83.9	62	67.1	2	5	90	0.00	30.080 
11:40	81.2	81.2	84.0	64	67.8	1	4	90	0.00	30.081 
11:45	82.0	82.0	84.6	61	67.2	1	5	112	0.00	30.082 
11:50	82.4	82.4	85.4	62	68.0	1	5	112	0.00	30.086 
11:55	82.4	82.4	85.4	62	68.0	1	3	90	0.00	30.088 
12:00	82.0	82.0	84.6	61	67.2	2	5	90	0.00	30.092 
12:05	81.4	81.4	83.9	62	67.1	3	5	90	0.00	30.095 
12:10	81.1	81.1	83.6	63	67.3	1	3	90	0.00	30.093 
12:15	81.4	81.4	83.9	62	67.1	2	4	90	0.00	30.090 
12:20	82.4	82.4	85.2	61	67.6	2	4	90	0.00	30.089 
12:25	83.4	83.4	86.1	58	67.0	2	4	90	0.00	30.090 
12:30	84.0	84.0	86.3	55	66.1	1	5	90	0.00	30.090 
12:35	84.5	84.5	87.8	58	68.1	1	4	90	0.00	30.085 
12:40	84.1	84.1	86.4	55	66.2	2	3	248	0.00	30.084 
12:45	83.8	83.8	86.7	58	67.4	1	3	248	0.00	30.083 
12:50	83.8	83.8	86.7	58	67.4	2	5	90	0.00	30.084 
12:55	84.1	84.1	87.2	58	67.7	1	5	270	0.00	30.083 
13:00	84.5	84.5	87.0	55	66.5	1	3	270	0.00	30.078 
13:05	84.9	84.9	87.1	53	65.8	2	4	248	0.00	30.078 
13:10	85.1	85.1	87.9	55	67.1	1	5	248	0.00	30.075 
13:15	85.3	85.3	88.0	54	66.7	1	4	90	0.00	30.076 
13:20	85.7	85.7	88.0	52	66.0	2	9	90	0.00	30.074 
13:25	85.1	85.1	87.7	54	66.6	1	3	90	0.00	30.073 
13:30	85.1	85.1	87.9	55	67.1	1	3	248	0.00	30.067 
13:35	85.3	85.3	87.1	51	65.1	2	6	90	0.00	30.066 
13:40	84.9	84.9	86.6	51	64.7	2	5	112	0.00	30.065 
13:45	85.5	85.5	87.7	52	65.8	1	4	90	0.00	30.064 
13:50	86.1	86.1	88.0	50	65.3	2	4	90	0.00	30.062 
13:55	85.7	85.7	88.0	52	66.0	1	4	68	0.00	30.061 
14:00	86.3	86.3	89.6	54	67.7	1	4	112	0.00	30.062 
14:05	87.4	87.4	90.1	50	66.4	1	3	180	0.00	30.060 
14:10	87.6	87.6	90.0	49	66.0	2	7	112	0.00	30.058 
14:15	87.6	87.6	90.0	49	66.0	2	5	90	0.00	30.058 
14:20	87.6	87.6	90.4	50	66.6	1	4	248	0.00	30.056 
14:25	87.4	87.4	89.1	47	64.7	1	4	248	0.00	30.053 
14:30	87.6	87.6	90.0	49	66.0	2	5	68	0.00	30.047 
14:35	87.2	87.2	88.8	47	64.5	1	5	248	0.00	30.047 
14:40	87.4	87.4	89.7	49	65.9	2	4	90	0.00	30.045 
14:45	87.8	87.8	91.1	51	67.4	1	3	90	0.00	30.043 
14:50	87.8	87.8	89.4	46	64.4	2	6	112	0.00	30.039 
14:55	87.8	87.8	89.4	46	64.4	1	6	270	0.00	30.040 
15:00	87.8	87.8	89.7	47	65.0	1	4	45	0.00	30.038 
15:05	87.6	87.6	89.7	48	65.4	2	5	90	0.00	30.039 
15:10	87.6	87.6	89.7	48	65.4	2	5	90	0.00	30.036 
15:15	87.2	87.2	89.1	48	65.1	2	5	68	0.00	30.035 
15:20	86.3	86.3	88.3	50	65.4	3	7	90	0.00	30.039 
15:25	86.1	86.1	88.0	50	65.3	1	3	112	0.00	30.041 
15:30	86.3	86.3	88.6	51	66.0	1	4	112	0.00	30.042 
15:35	86.5	86.5	88.9	51	66.2	1	3	90	0.00	30.039 
15:40	86.7	86.7	88.3	48	64.6	2	6	248	0.00	30.039 
15:45	86.5	86.5	88.9	51	66.2	1	2	248	0.00	30.036 
15:50	86.7	86.7	88.3	48	64.6	2	5	248	0.00	30.039 
15:55	87.2	87.2	89.7	50	66.3	1	3	248	0.00	30.040 
16:00	87.8	87.8	90.0	48	65.6	1	4	248	0.00	30.042 
16:05	87.8	87.8	90.0	48	65.6	1	3	248	0.00	30.041 
16:10	88.0	88.0	90.0	47	65.2	0	1	248	0.00	30.043 
16:15	87.8	87.8	90.0	48	65.6	1	2	248	0.00	30.042 
16:20	87.6	87.6	89.4	47	64.8	1	5	292	0.00	30.042 
16:25	87.6	87.6	90.0	49	66.0	1	3	292	0.00	30.044 
16:30	87.0	87.0	88.8	48	64.9	1	4	248	0.00	30.042 
16:35	86.5	86.5	88.3	49	65.0	1	3	248	0.00	30.042 
16:40	85.9	85.9	87.7	50	65.1	1	2	270	0.00	30.045 
16:45	85.7	85.7	87.4	50	64.9	0	1	270	0.00	30.044 
16:50	85.5	85.5	87.7	52	65.8	0	1	270	0.00	30.040 
16:55	85.3	85.3	87.1	51	65.1	0	2	0	0.00	30.043 
17:00	85.3	85.3	87.4	52	65.6	1	3	90	0.00	30.042 
17:05	85.1	85.1	87.4	53	66.0	0	2	248	0.00	30.043 
17:10	84.9	84.9	87.3	54	66.4	0	2	248	0.00	30.043 
17:15	84.7	84.7	87.0	54	66.2	0	2	248	0.00	30.041 
17:20	84.5	84.5	86.7	54	66.0	0	1	248	0.00	30.042 
17:25	84.3	84.3	86.5	54	65.8	0	1	248	0.00	30.042 
17:30	84.1	84.1	86.2	54	65.6	0	1	248	0.00	30.044 
17:35	84.0	84.0	86.3	55	66.1	0	1	248	0.00	30.045 
17:40	84.0	84.0	86.3	55	66.1	0	1	248	0.00	30.046 
17:45	83.8	83.8	86.2	56	66.4	0	0	---	0.00	30.047 
17:50	83.6	83.6	85.9	56	66.2	0	1	248	0.00	30.048 
17:55	83.4	83.4	85.6	56	66.0	0	1	248	0.00	30.047 
18:00	83.4	83.4	85.6	56	66.0	0	0	---	0.00	30.048 
18:05	83.6	83.6	85.9	56	66.2	0	0	---	0.00	30.047 
18:10	83.8	83.8	86.2	56	66.4	0	1	248	0.00	30.046 
18:15	83.8	83.8	85.7	54	65.3	0	1	248	0.00	30.045 
18:20	84.0	84.0	86.0	54	65.5	0	1	248	0.00	30.047 
18:25	84.1	84.1	86.4	55	66.2	0	3	248	0.00	30.047 
18:30	84.1	84.1	86.2	54	65.6	0	3	135	0.00	30.045 
18:35	84.0	84.0	86.3	55	66.1	0	0	---	0.00	30.046 
18:40	84.0	84.0	86.0	54	65.5	0	1	135	0.00	30.048 
18:45	83.8	83.8	86.2	56	66.4	0	1	135	0.00	30.048 
18:50	83.8	83.8	86.2	56	66.4	0	1	135	0.00	30.048 
18:55	83.6	83.6	86.1	57	66.7	0	1	135	0.00	30.047 
19:00	83.4	83.4	85.8	57	66.5	0	0	---	0.00	30.050 
19:05	83.2	83.2	85.8	58	66.9	0	0	---	0.00	30.045 
19:10	83.0	83.0	85.7	59	67.2	0	1	135	0.00	30.044 
19:15	82.6	82.6	85.1	59	66.8	0	0	---	0.00	30.042 
19:20	82.4	82.4	85.0	60	67.1	0	0	---	0.00	30.044 
19:25	82.0	82.0	84.4	60	66.7	0	0	---	0.00	30.046 
19:30	81.8	81.8	84.1	60	66.5	0	0	---	0.00	30.047 
19:35	81.6	81.6	84.2	62	67.3	0	0	---	0.00	30.048 
19:40	81.6	81.6	84.2	62	67.3	0	0	---	0.00	30.049 
19:45	81.4	81.4	83.9	62	67.1	0	0	---	0.00	30.046 
19:50	81.2	81.2	83.6	62	66.9	0	0	---	0.00	30.045 
19:55	81.1	81.1	83.5	62	66.8	0	0	---	0.00	30.045 
20:00	80.9	80.9	83.2	62	66.6	0	0	---	0.00	30.045 
20:05	80.7	80.7	83.1	63	66.9	0	0	---	0.00	30.043 
20:10	80.5	80.5	82.8	63	66.7	0	0	---	0.00	30.043 
20:15	80.3	80.3	82.7	64	67.0	0	0	---	0.00	30.043 
20:20	80.1	80.1	82.4	64	66.8	0	0	---	0.00	30.043 
20:25	79.8	79.8	82.1	65	67.0	0	0	---	0.00	30.042 
20:30	79.4	79.4	81.6	66	67.0	0	0	---	0.00	30.043 
20:35	79.2	79.2	81.4	66	66.8	0	0	---	0.00	30.044 
20:40	78.8	78.8	80.9	67	66.9	0	0	---	0.00	30.045 
20:45	78.6	78.6	80.7	68	67.1	0	0	---	0.00	30.048 
20:50	78.1	78.1	80.1	68	66.7	0	0	---	0.00	30.049 
20:55	77.9	77.9	79.9	69	66.9	0	0	---	0.00	30.051 
21:00	77.6	77.6	79.5	70	67.0	0	0	---	0.00	30.057 
21:05	77.2	77.2	79.0	70	66.6	0	0	---	0.00	30.057 
21:10	77.0	77.0	78.8	71	66.9	0	0	---	0.00	30.059 
21:15	76.7	76.7	78.4	72	67.0	0	0	---	0.00	30.059 
21:20	76.3	76.3	77.8	73	67.0	0	0	---	0.00	30.060 
21:25	76.1	76.1	77.6	73	66.8	0	0	---	0.00	30.063 
21:30	75.8	75.8	77.2	74	66.9	0	0	---	0.00	30.068 
21:35	75.4	75.4	76.6	75	66.9	0	0	---	0.00	30.072 
21:40	75.3	75.3	76.4	76	67.2	0	0	---	0.00	30.074 
21:45	75.1	75.1	76.2	76	67.0	0	0	---	0.00	30.074 
21:50	74.7	74.7	74.7	77	67.0	0	0	---	0.00	30.075 
21:55	74.6	74.6	74.6	77	66.9	0	0	---	0.00	30.075 
22:00	74.4	74.4	74.4	78	67.1	0	0	---	0.00	30.078 
22:05	74.2	74.2	74.2	79	67.3	0	0	---	0.00	30.080 
22:10	74.0	74.0	74.0	79	67.1	0	0	---	0.00	30.081 
22:15	73.9	73.9	73.9	80	67.3	0	0	---	0.00	30.083 
22:20	73.7	73.7	73.7	81	67.5	0	0	---	0.00	30.086 
22:25	73.5	73.5	73.5	81	67.3	0	0	---	0.00	30.087 
22:30	73.3	73.3	73.3	82	67.5	0	0	---	0.00	30.090 
22:35	73.2	73.2	73.2	82	67.4	0	0	---	0.00	30.091 
22:40	73.0	73.0	73.0	82	67.2	0	0	---	0.00	30.092 
22:45	73.0	73.0	73.0	83	67.5	0	0	---	0.00	30.092 
22:50	72.8	72.8	72.8	83	67.3	0	0	---	0.00	30.093 
22:55	72.7	72.7	72.7	83	67.2	0	0	---	0.00	30.094 
23:00	72.5	72.5	72.5	84	67.4	0	0	---	0.00	30.093 
23:05	72.3	72.3	72.3	84	67.2	0	0	---	0.00	30.094 
23:10	72.1	72.1	72.1	84	67.0	0	0	---	0.00	30.095 
23:15	72.0	72.0	72.0	85	67.2	0	0	---	0.00	30.098 
23:20	71.8	71.8	71.8	85	67.0	0	0	---	0.00	30.097 
23:25	71.6	71.6	71.6	86	67.2	0	0	---	0.00	30.096 
23:30	71.6	71.6	71.6	86	67.2	0	0	---	0.00	30.098 
23:35	71.5	71.5	71.5	87	67.4	0	0	---	0.00	30.097 
23:40	71.3	71.3	71.3	87	67.2	0	0	---	0.00	30.095 
23:45	71.3	71.3	71.3	87	67.2	0	0	---	0.00	30.101 
23:50	71.1	71.1	71.1	87	67.0	0	0	---	0.00	30.105 
23:55	70.9	70.9	70.9	88	67.2	0	0	---	0.00	30.106 

CoCoRaHS
IN-AL-39
A2 Web Hosting
Creative Commons License
GoDaddy
Look for:

loaded 2017-10-18 21:56:33 • last modified 2010-11-18 10:43:29
Privacy PolicyDisclaimer
• wx.awcolley.com is powered by PmWiki v.2002016 •
• all content (unless otherwise noted) © 2017 A W Colley